Algosea — CFN4229 — position and weather

sailwx.info

Track history (hours):
 
Tides and Currents Weather Stations Pressure Air Temp Water Temp Dewpoint Dewpoint Depression Visibility Wind Speed Wind Dir Waves Ship Positions

Algosea

Last reported at 2015-Aug-02 14:26 UTC. Time now 2015-Aug-04 03:25 UTC.
Position N 42°48' W 080°03'.

Length 144 m; draft 7.8 m.

Type: Ship (hazmat cat C). MMSI: 316006868.

Date/timePositionNaut miles runAvg speedWind from/ knotsBaromVisibWave heightAir tempDewpointWater temp
2015-Aug-02 14:26N 42°48' W 080°03'3 3.7
2015-Aug-02 13:33N 42°45' W 080°05'4 4.4
2015-Aug-02 12:33N 42°44' W 080°11'0 0.0
2015-Aug-02 11:31N 42°44' W 080°11'0 0.0
2015-Aug-02 10:28N 42°44' W 080°11'0 0.0
2015-Aug-02 09:28N 42°44' W 080°11'0 0.0
2015-Aug-02 08:31N 42°44' W 080°11'0 0.1
2015-Aug-02 07:28N 42°44' W 080°11'0 0.0
2015-Aug-02 06:28N 42°44' W 080°11'0 0.0
2015-Aug-02 05:28N 42°44' W 080°11'0 0.0
2015-Aug-02 04:28N 42°44' W 080°11'0 0.0
2015-Aug-02 03:28N 42°44' W 080°11'0 0.0
2015-Aug-02 02:28N 42°44' W 080°11'0 0.0
2015-Aug-02 01:28N 42°44' W 080°11'0 0.0
2015-Aug-02 00:28N 42°44' W 080°11'0 0.0
2015-Aug-01 23:28N 42°44' W 080°11'0 0.0
2015-Aug-01 22:28N 42°44' W 080°11'0 0.0
2015-Aug-01 21:28N 42°44' W 080°11'0 0.0
2015-Aug-01 20:28N 42°44' W 080°11'0 0.0
2015-Aug-01 19:28N 42°44' W 080°11'0 0.0
2015-Aug-01 18:16N 42°44' W 080°11'0 0.0
2015-Aug-01 17:28N 42°44' W 080°11'0 0.0
2015-Aug-01 16:28N 42°44' W 080°11'0 0.1
2015-Aug-01 15:28N 42°44' W 080°11'0 0.0
2015-Aug-01 14:28N 42°44' W 080°11'0 0.0
2015-Aug-01 13:22N 42°44' W 080°11'0 0.0
2015-Aug-01 12:28N 42°44' W 080°11'0 0.0
2015-Aug-01 11:28N 42°44' W 080°11'0 0.0
2015-Aug-01 10:28N 42°44' W 080°11'0 0.0
2015-Aug-01 09:28N 42°44' W 080°11'0 0.0
2015-Aug-01 08:28N 42°44' W 080°11'0 0.0
2015-Aug-01 07:28N 42°44' W 080°11'0 0.0
2015-Aug-01 06:28N 42°44' W 080°11'0 0.0
2015-Aug-01 05:28N 42°44' W 080°11'0 0.0
2015-Aug-01 04:28N 42°44' W 080°11'0 0.0
2015-Aug-01 03:25N 42°44' W 080°11'0 0.1
2015-Aug-01 02:28N 42°44' W 080°11'0 0.0
2015-Aug-01 01:28N 42°44' W 080°11'0 0.0
2015-Aug-01 00:31N 42°44' W 080°11'4 4.1
2015-Jul-31 23:33N 42°43' W 080°06'8 8.0
2015-Jul-31 22:33N 42°43' W 079°55'1211.6
2015-Jul-31 21:32N 42°46' W 079°39'1111.5
2015-Jul-31 20:33N 42°48' W 079°24'15 4.5
2015-Jul-31 17:09N 43°01' W 079°13'4 5.9
2015-Jul-31 16:33N 43°05' W 079°13'3 2.9
2015-Jul-31 15:34N 43°07' W 079°12'1 0.5
2015-Jul-31 14:34N 43°08' W 079°12'0 0.3
2015-Jul-31 13:34N 43°08' W 079°12'1 1.1
2015-Jul-31 12:34N 43°09' W 079°12'1 1.3
2015-Jul-31 11:34N 43°11' W 079°12'1 1.2
2015-Jul-31 10:34N 43°12' W 079°12'1 1.4
2015-Jul-31 09:34N 43°13' W 079°13'2 1.6
2015-Jul-31 08:34N 43°15' W 079°13'8 7.9
2015-Jul-31 07:33N 43°22' W 079°08'1212.1
2015-Jul-31 06:33N 43°26' W 078°53'1312.5
2015-Jul-31 05:33N 43°30' W 078°36'4912.2
2015-Jul-31 01:31N 43°43' W 077°31'6612.1
2015-Jul-30 20:03N 44°14' W 076°09'0 0.0
2015-Jul-30 19:33N 44°14' W 076°09'86 7.2
2015-Jul-30 07:32N 45°04' W 074°31'10 9.7
2015-Jul-30 06:28N 45°11' W 074°19'9 9.7
2015-Jul-30 05:33N 45°14' W 074°07'9 8.6
2015-Jul-30 04:33N 45°17' W 073°56'2 2.1
2015-Jul-30 03:34N 45°19' W 073°55'4 4.3
2015-Jul-30 02:33N 45°22' W 073°50'8 8.2
2015-Jul-30 01:33N 45°24' W 073°39'4 3.9
2015-Jul-30 00:34N 45°24' W 073°34'4 3.5
2015-Jul-29 23:31N 45°27' W 073°30'3 2.7
2015-Jul-29 22:24N 45°30' W 073°31'  
Track history (hours):
 
Tides and Currents Weather Stations Pressure Air Temp Water Temp Dewpoint Dewpoint Depression Visibility Wind Speed Wind Dir Waves Ship Positions

Algosea

Last reported at 2015-Aug-02 14:26 UTC. Time now 2015-Aug-04 03:25 UTC.
Position N 42°48' W 080°03'.

Length 144 m; draft 7.8 m.

Type: Ship (hazmat cat C). MMSI: 316006868.

Date/timePositionNaut miles runAvg speedWind from/ knotsBaromVisibWave heightAir tempDewpointWater temp
2015-Aug-02 14:26N 42°48' W 080°03'3 3.7
2015-Aug-02 13:33N 42°45' W 080°05'4 4.4
2015-Aug-02 12:33N 42°44' W 080°11'0 0.0
2015-Aug-02 11:31N 42°44' W 080°11'0 0.0
2015-Aug-02 10:28N 42°44' W 080°11'0 0.0
2015-Aug-02 09:28N 42°44' W 080°11'0 0.0
2015-Aug-02 08:31N 42°44' W 080°11'0 0.1
2015-Aug-02 07:28N 42°44' W 080°11'0 0.0
2015-Aug-02 06:28N 42°44' W 080°11'0 0.0
2015-Aug-02 05:28N 42°44' W 080°11'0 0.0
2015-Aug-02 04:28N 42°44' W 080°11'0 0.0
2015-Aug-02 03:28N 42°44' W 080°11'0 0.0
2015-Aug-02 02:28N 42°44' W 080°11'0 0.0
2015-Aug-02 01:28N 42°44' W 080°11'0 0.0
2015-Aug-02 00:28N 42°44' W 080°11'0 0.0
2015-Aug-01 23:28N 42°44' W 080°11'0 0.0
2015-Aug-01 22:28N 42°44' W 080°11'0 0.0
2015-Aug-01 21:28N 42°44' W 080°11'0 0.0
2015-Aug-01 20:28N 42°44' W 080°11'0 0.0
2015-Aug-01 19:28N 42°44' W 080°11'0 0.0
2015-Aug-01 18:16N 42°44' W 080°11'0 0.0
2015-Aug-01 17:28N 42°44' W 080°11'0 0.0
2015-Aug-01 16:28N 42°44' W 080°11'0 0.1
2015-Aug-01 15:28N 42°44' W 080°11'0 0.0
2015-Aug-01 14:28N 42°44' W 080°11'0 0.0
2015-Aug-01 13:22N 42°44' W 080°11'0 0.0
2015-Aug-01 12:28N 42°44' W 080°11'0 0.0
2015-Aug-01 11:28N 42°44' W 080°11'0 0.0
2015-Aug-01 10:28N 42°44' W 080°11'0 0.0
2015-Aug-01 09:28N 42°44' W 080°11'0 0.0
2015-Aug-01 08:28N 42°44' W 080°11'0 0.0
2015-Aug-01 07:28N 42°44' W 080°11'0 0.0
2015-Aug-01 06:28N 42°44' W 080°11'0 0.0
2015-Aug-01 05:28N 42°44' W 080°11'0 0.0
2015-Aug-01 04:28N 42°44' W 080°11'0 0.0
2015-Aug-01 03:25N 42°44' W 080°11'0 0.1
2015-Aug-01 02:28N 42°44' W 080°11'0 0.0
2015-Aug-01 01:28N 42°44' W 080°11'0 0.0
2015-Aug-01 00:31N 42°44' W 080°11'4 4.1
2015-Jul-31 23:33N 42°43' W 080°06'8 8.0
2015-Jul-31 22:33N 42°43' W 079°55'1211.6
2015-Jul-31 21:32N 42°46' W 079°39'1111.5
2015-Jul-31 20:33N 42°48' W 079°24'15 4.5
2015-Jul-31 17:09N 43°01' W 079°13'4 5.9
2015-Jul-31 16:33N 43°05' W 079°13'3 2.9
2015-Jul-31 15:34N 43°07' W 079°12'1 0.5
2015-Jul-31 14:34N 43°08' W 079°12'0 0.3
2015-Jul-31 13:34N 43°08' W 079°12'1 1.1
2015-Jul-31 12:34N 43°09' W 079°12'1 1.3
2015-Jul-31 11:34N 43°11' W 079°12'1 1.2
2015-Jul-31 10:34N 43°12' W 079°12'1 1.4
2015-Jul-31 09:34N 43°13' W 079°13'2 1.6
2015-Jul-31 08:34N 43°15' W 079°13'8 7.9
2015-Jul-31 07:33N 43°22' W 079°08'1212.1
2015-Jul-31 06:33N 43°26' W 078°53'1312.5
2015-Jul-31 05:33N 43°30' W 078°36'4912.2
2015-Jul-31 01:31N 43°43' W 077°31'6612.1
2015-Jul-30 20:03N 44°14' W 076°09'0 0.0
2015-Jul-30 19:33N 44°14' W 076°09'86 7.2
2015-Jul-30 07:32N 45°04' W 074°31'10 9.7
2015-Jul-30 06:28N 45°11' W 074°19'9 9.7
2015-Jul-30 05:33N 45°14' W 074°07'9 8.6
2015-Jul-30 04:33N 45°17' W 073°56'2 2.1
2015-Jul-30 03:34N 45°19' W 073°55'4 4.3
2015-Jul-30 02:33N 45°22' W 073°50'8 8.2
2015-Jul-30 01:33N 45°24' W 073°39'4 3.9
2015-Jul-30 00:34N 45°24' W 073°34'4 3.5
2015-Jul-29 23:31N 45°27' W 073°30'3 2.7
2015-Jul-29 22:24N 45°30' W 073°31'  

Dump ship's entire track history